Time,TemperatureF,DewpointF,PressureIn,WindDirection,WindDirectionDegrees,WindSpeedMPH,WindSpeedGustMPH,Humidity,HourlyPrecipIn,Conditions,Clouds,dailyrainin,SolarRadiationWatts/m^2,SoftwareType,DateUTC
2013-05-04 00:02:00,50.0,37.0,-100.00,North,0,9.0,16.0,60,0.00,,,0.00,0.000000,,2013-05-04 04:02:00,
2013-05-04 00:33:00,48.0,39.0,-100.00,North,0,9.0,17.0,70,0.00,,,0.00,0.000000,,2013-05-04 04:33:00,
2013-05-04 00:43:00,48.0,39.0,-100.00,North,0,9.0,17.0,70,0.00,,,0.00,0.000000,,2013-05-04 04:43:00,
2013-05-04 00:53:00,48.0,39.0,-100.00,North,0,9.0,17.0,70,0.00,,,0.00,0.000000,,2013-05-04 04:53:00,
2013-05-04 01:02:00,48.0,39.0,-100.00,North,0,9.0,17.0,70,0.00,,,0.00,0.000000,,2013-05-04 05:02:00,
2013-05-04 01:32:00,45.0,36.0,-100.00,North,0,10.0,22.0,71,0.00,,,0.00,0.000000,,2013-05-04 05:32:00,
2013-05-04 01:43:00,45.0,36.0,-100.00,North,0,10.0,22.0,71,0.00,,,0.00,0.000000,,2013-05-04 05:43:00,
2013-05-04 01:52:00,45.0,36.0,-100.00,North,0,10.0,22.0,71,0.00,,,0.00,0.000000,,2013-05-04 05:52:00,
2013-05-04 02:01:00,45.0,36.0,-100.00,North,0,10.0,22.0,71,0.00,,,0.00,0.000000,,2013-05-04 06:01:00,
2013-05-04 02:32:00,43.0,35.0,-100.00,North,0,10.0,21.0,73,0.00,,,0.00,0.000000,,2013-05-04 06:32:00,
2013-05-04 02:42:00,43.0,35.0,-100.00,North,0,10.0,21.0,73,0.00,,,0.00,0.000000,,2013-05-04 06:42:00,
2013-05-04 02:52:00,43.0,35.0,-100.00,North,0,10.0,21.0,73,0.00,,,0.00,0.000000,,2013-05-04 06:52:00,
2013-05-04 03:01:00,43.0,35.0,-100.00,North,0,10.0,21.0,73,0.00,,,0.00,0.000000,,2013-05-04 07:01:00,
2013-05-04 03:32:00,42.0,35.0,-100.00,North,0,9.0,21.0,77,0.00,,,0.00,0.000000,,2013-05-04 07:32:00,
2013-05-04 03:42:00,42.0,35.0,-100.00,North,0,9.0,21.0,77,0.00,,,0.00,0.000000,,2013-05-04 07:42:00,
2013-05-04 03:52:00,42.0,35.0,-100.00,North,0,9.0,21.0,77,0.00,,,0.00,0.000000,,2013-05-04 07:52:00,
2013-05-04 04:02:00,42.0,35.0,-100.00,North,0,9.0,21.0,77,0.00,,,0.00,0.000000,,2013-05-04 08:02:00,
2013-05-04 04:32:00,40.0,33.0,-100.00,North,0,10.0,22.0,77,0.00,,,0.00,0.000000,,2013-05-04 08:32:00,
2013-05-04 04:42:00,40.0,33.0,-100.00,North,0,10.0,22.0,77,0.00,,,0.00,0.000000,,2013-05-04 08:42:00,
2013-05-04 04:52:00,40.0,33.0,-100.00,North,0,10.0,22.0,77,0.00,,,0.00,0.000000,,2013-05-04 08:52:00,
2013-05-04 05:02:00,40.0,33.0,-100.00,North,0,10.0,22.0,77,0.00,,,0.00,0.000000,,2013-05-04 09:02:00,
2013-05-04 05:33:00,40.0,34.0,-100.00,North,0,10.0,23.0,80,0.00,,,0.00,0.000000,,2013-05-04 09:33:00,
2013-05-04 05:42:00,40.0,34.0,-100.00,North,0,10.0,23.0,80,0.00,,,0.00,0.000000,,2013-05-04 09:42:00,
2013-05-04 05:53:00,40.0,34.0,-100.00,North,0,10.0,23.0,80,0.00,,,0.00,0.000000,,2013-05-04 09:53:00,
2013-05-04 06:03:00,40.0,34.0,-100.00,North,0,10.0,23.0,80,0.00,,,0.00,0.000000,,2013-05-04 10:03:00,
2013-05-04 06:33:00,40.0,35.0,-100.00,North,0,10.0,23.0,83,0.00,,,0.00,1.000000,,2013-05-04 10:33:00,
2013-05-04 06:42:00,40.0,35.0,-100.00,North,0,10.0,23.0,83,0.00,,,0.00,1.000000,,2013-05-04 10:42:00,
2013-05-04 06:53:00,40.0,35.0,-100.00,North,0,10.0,23.0,83,0.00,,,0.00,1.000000,,2013-05-04 10:53:00,
2013-05-04 07:02:00,40.0,35.0,-100.00,North,0,10.0,23.0,83,0.00,,,0.00,1.000000,,2013-05-04 11:02:00,
2013-05-04 07:08:00,40.0,37.0,-100.00,North,0,10.0,23.0,89,0.00,,,0.00,26.000000,,2013-05-04 11:08:00,
2013-05-04 07:32:00,40.0,37.0,-100.00,North,0,10.0,23.0,89,0.00,,,0.00,26.000000,,2013-05-04 11:32:00,
2013-05-04 07:46:00,40.0,37.0,-100.00,North,0,10.0,23.0,89,0.00,,,0.00,26.000000,,2013-05-04 11:46:00,
2013-05-04 08:03:00,40.0,37.0,-100.00,North,0,10.0,23.0,89,0.00,,,0.00,26.000000,,2013-05-04 12:03:00,
2013-05-04 09:32:00,47.0,41.0,-100.00,North,0,12.0,29.0,78,-99.99,,,0.00,320.000000,,2013-05-04 13:32:00,
2013-05-04 09:42:00,47.0,41.0,-100.00,North,0,12.0,29.0,78,-99.99,,,0.00,320.000000,,2013-05-04 13:42:00,
2013-05-04 09:53:00,47.0,41.0,-100.00,North,0,12.0,29.0,78,-99.99,,,0.00,320.000000,,2013-05-04 13:53:00,
2013-05-04 10:02:00,47.0,41.0,-100.00,North,0,12.0,29.0,78,-99.99,,,0.00,320.000000,,2013-05-04 14:02:00,
2013-05-04 10:32:00,52.0,38.0,-100.00,North,0,10.0,21.0,59,0.00,,,0.00,576.000000,,2013-05-04 14:32:00,
2013-05-04 10:42:00,52.0,38.0,-100.00,North,0,10.0,21.0,59,0.00,,,0.00,576.000000,,2013-05-04 14:42:00,
2013-05-04 10:52:00,52.0,38.0,-100.00,North,0,10.0,21.0,59,0.00,,,0.00,576.000000,,2013-05-04 14:52:00,
2013-05-04 11:02:00,52.0,38.0,-100.00,North,0,10.0,21.0,59,0.00,,,0.00,576.000000,,2013-05-04 15:02:00,
2013-05-04 11:33:00,53.0,37.0,-100.00,North,0,11.0,26.0,54,0.00,,,0.00,623.000000,,2013-05-04 15:33:00,
2013-05-04 11:43:00,53.0,37.0,-100.00,North,0,11.0,26.0,54,0.00,,,0.00,623.000000,,2013-05-04 15:43:00,
2013-05-04 11:53:00,53.0,37.0,-100.00,North,0,11.0,26.0,54,0.00,,,0.00,623.000000,,2013-05-04 15:53:00,
2013-05-04 12:03:00,53.0,37.0,-100.00,North,0,11.0,26.0,54,0.00,,,0.00,623.000000,,2013-05-04 16:03:00,
2013-05-04 12:33:00,58.0,40.0,-100.00,North,0,7.0,21.0,51,0.00,,,0.00,846.000000,,2013-05-04 16:33:00,
2013-05-04 12:42:00,58.0,40.0,-100.00,North,0,7.0,21.0,51,0.00,,,0.00,846.000000,,2013-05-04 16:42:00,
2013-05-04 12:52:00,58.0,40.0,-100.00,North,0,7.0,21.0,51,0.00,,,0.00,846.000000,,2013-05-04 16:52:00,
2013-05-04 13:02:00,58.0,40.0,-100.00,North,0,7.0,21.0,51,0.00,,,0.00,846.000000,,2013-05-04 17:02:00,
2013-05-04 13:33:00,60.0,37.0,-100.00,North,0,8.0,20.0,43,0.00,,,0.00,884.000000,,2013-05-04 17:33:00,
2013-05-04 13:42:00,60.0,37.0,-100.00,North,0,8.0,20.0,43,0.00,,,0.00,884.000000,,2013-05-04 17:42:00,
2013-05-04 13:52:00,60.0,37.0,-100.00,North,0,8.0,20.0,43,0.00,,,0.00,884.000000,,2013-05-04 17:52:00,
2013-05-04 14:01:00,60.0,37.0,-100.00,North,0,8.0,20.0,43,0.00,,,0.00,884.000000,,2013-05-04 18:01:00,
2013-05-04 14:32:00,61.0,38.0,-100.00,North,0,9.0,17.0,42,0.00,,,0.00,791.000000,,2013-05-04 18:32:00,
2013-05-04 14:42:00,61.0,38.0,-100.00,North,0,9.0,17.0,42,0.00,,,0.00,791.000000,,2013-05-04 18:42:00,
2013-05-04 14:52:00,61.0,38.0,-100.00,North,0,9.0,17.0,42,0.00,,,0.00,791.000000,,2013-05-04 18:52:00,
2013-05-04 15:02:00,61.0,38.0,-100.00,North,0,9.0,17.0,42,0.00,,,0.00,791.000000,,2013-05-04 19:02:00,
2013-05-04 15:32:00,63.0,35.0,-100.00,North,0,9.0,20.0,35,0.00,,,0.00,820.000000,,2013-05-04 19:32:00,
2013-05-04 15:42:00,63.0,35.0,-100.00,North,0,9.0,20.0,35,0.00,,,0.00,820.000000,,2013-05-04 19:42:00,
2013-05-04 15:52:00,63.0,35.0,-100.00,North,0,9.0,20.0,35,0.00,,,0.00,820.000000,,2013-05-04 19:52:00,
2013-05-04 16:02:00,63.0,35.0,-100.00,North,0,9.0,20.0,35,0.00,,,0.00,820.000000,,2013-05-04 20:02:00,
2013-05-04 16:32:00,64.0,37.0,-100.00,North,0,9.0,20.0,37,0.00,,,0.00,808.000000,,2013-05-04 20:32:00,
2013-05-04 16:42:00,64.0,37.0,-100.00,North,0,9.0,20.0,37,0.00,,,0.00,808.000000,,2013-05-04 20:42:00,
2013-05-04 16:52:00,64.0,37.0,-100.00,North,0,9.0,20.0,37,0.00,,,0.00,808.000000,,2013-05-04 20:52:00,
2013-05-04 17:02:00,64.0,37.0,-100.00,North,0,9.0,20.0,37,0.00,,,0.00,808.000000,,2013-05-04 21:02:00,
2013-05-04 17:33:00,63.0,37.0,-100.00,North,0,9.0,16.0,38,0.00,,,0.00,617.000000,,2013-05-04 21:33:00,
2013-05-04 17:43:00,63.0,37.0,-100.00,North,0,9.0,16.0,38,0.00,,,0.00,617.000000,,2013-05-04 21:43:00,
2013-05-04 17:53:00,63.0,37.0,-100.00,North,0,9.0,16.0,38,0.00,,,0.00,617.000000,,2013-05-04 21:53:00,
2013-05-04 18:03:00,63.0,37.0,-100.00,North,0,9.0,16.0,38,0.00,,,0.00,617.000000,,2013-05-04 22:03:00,
2013-05-04 18:33:00,62.0,34.0,-100.00,North,0,9.0,19.0,35,0.00,,,-99.99,490.000000,,2013-05-04 22:33:00,
2013-05-04 18:43:00,62.0,34.0,-100.00,North,0,9.0,19.0,35,0.00,,,-99.99,490.000000,,2013-05-04 22:43:00,
2013-05-04 18:52:00,62.0,34.0,-100.00,North,0,9.0,19.0,35,0.00,,,-99.99,490.000000,,2013-05-04 22:52:00,
2013-05-04 19:02:00,62.0,34.0,-100.00,North,0,9.0,19.0,35,0.00,,,-99.99,490.000000,,2013-05-04 23:02:00,
2013-05-04 19:32:00,58.0,33.0,-100.00,North,0,7.0,19.0,38,0.00,,,-99.99,251.000000,,2013-05-04 23:32:00,
2013-05-04 19:42:00,58.0,33.0,-100.00,North,0,7.0,19.0,38,0.00,,,-99.99,251.000000,,2013-05-04 23:42:00,
2013-05-04 19:52:00,58.0,33.0,-100.00,North,0,7.0,19.0,38,0.00,,,-99.99,251.000000,,2013-05-04 23:52:00,
2013-05-04 20:02:00,58.0,33.0,-100.00,North,0,7.0,19.0,38,0.00,,,-99.99,251.000000,,2013-05-05 00:02:00,
2013-05-04 20:32:00,55.0,35.0,-100.00,North,0,5.0,15.0,46,0.00,,,-99.99,38.000000,,2013-05-05 00:32:00,
2013-05-04 20:42:00,55.0,35.0,-100.00,North,0,5.0,15.0,46,0.00,,,-99.99,38.000000,,2013-05-05 00:42:00,
2013-05-04 20:52:00,55.0,35.0,-100.00,North,0,5.0,15.0,46,0.00,,,-99.99,38.000000,,2013-05-05 00:52:00,
2013-05-04 21:01:00,55.0,35.0,-100.00,North,0,5.0,15.0,46,0.00,,,-99.99,38.000000,,2013-05-05 01:01:00,
2013-05-04 21:32:00,53.0,36.0,-100.00,North,0,4.0,10.0,53,0.00,,,0.00,1.000000,,2013-05-05 01:32:00,
2013-05-04 21:42:00,53.0,36.0,-100.00,North,0,4.0,10.0,53,0.00,,,0.00,1.000000,,2013-05-05 01:42:00,
2013-05-04 21:52:00,53.0,36.0,-100.00,North,0,4.0,10.0,53,0.00,,,0.00,1.000000,,2013-05-05 01:52:00,
2013-05-04 22:02:00,53.0,36.0,-100.00,North,0,4.0,10.0,53,0.00,,,0.00,1.000000,,2013-05-05 02:02:00,
2013-05-04 22:32:00,52.0,37.0,-100.00,North,0,6.0,17.0,56,0.00,,,0.00,0.000000,,2013-05-05 02:32:00,
2013-05-04 22:42:00,52.0,37.0,-100.00,North,0,6.0,17.0,56,0.00,,,0.00,0.000000,,2013-05-05 02:42:00,
2013-05-04 22:52:00,52.0,37.0,-100.00,North,0,6.0,17.0,56,0.00,,,0.00,0.000000,,2013-05-05 02:52:00,
2013-05-04 23:01:00,52.0,37.0,-100.00,North,0,6.0,17.0,56,0.00,,,0.00,0.000000,,2013-05-05 03:01:00,
2013-05-04 23:33:00,50.0,36.0,-100.00,North,0,6.0,13.0,58,0.00,,,0.00,0.000000,,2013-05-05 03:33:00,
2013-05-04 23:42:00,50.0,36.0,-100.00,North,0,6.0,13.0,58,0.00,,,0.00,0.000000,,2013-05-05 03:42:00,
2013-05-04 23:53:00,50.0,36.0,-100.00,North,0,6.0,13.0,58,0.00,,,0.00,0.000000,,2013-05-05 03:53:00,